Flight Number: EUR2034 Duration: 0:50
Departure: Vienna Schwechat (LOWW) at 07:00 Distance: 192 Nm
Arrival: Munich Int'l (EDDM) at 07:50 Equipment: B737

Weather Information
Wien / Schwechat-Flughafen, Austria (LOWW) 48-07N 016-34E 190M May 20, 2018 - 09:50 AM EDT / 2018.05.20 1350 UTC
Wind: from the NE (040 degrees) at 7 MPH (6 KT) (direction variable):0
Visibility: greater than 7 mile(s):0 Temperature: 71 F (22 C) Dew Point: 42 F (6 C) Relative Humidity: 35% Pressure (altimeter): 30.12 in. Hg (1020 hPa)
ob: LOWW 201350Z 04006KT 010V090 CAVOK 22/06 Q1020 NOSIG cycle: 14
Sunrise: 03:12 Sunset: 18:28 (UTC)

Munchen, Germany (EDDM) 48-21N 011-47E May 20, 2018 - 09:50 AM EDT / 2018.05.20 1350 UTC
Wind: from the E (080 degrees) at 16 MPH (14 KT) (direction variable):0
Visibility: greater than 7 mile(s):0 Temperature: 69 F (21 C) Dew Point: 46 F (8 C) Relative Humidity: 43% Pressure (altimeter): 30.06 in. Hg (1018 hPa)
ob: EDDM 201350Z 08014KT 040V110 CAVOK 21/08 Q1018 NOSIG cycle: 14
Sunrise: 03:30 Sunset: 18:48 (UTC)

TAF:2018/05/20 12:27 TAF EDDM 201100Z 2012/2118 09015G25KT 9999 SCT040 BECMG 2017/2020 07008KT PROB30 TEMPO 2114/2118 SHRA SCT050TCU

Previous Pireps for this route
Date Aircraft Flight time Fuel used Landing rate On time
2013-04-01B737150000No
2013-07-06B73700.575700-422No
2013-07-06B73701.008599-817No
2013-07-21B7370.5000No
2013-08-15B73701.016744-288No
2013-10-20B7371.0092540No
2014-03-31B73701.199380-574No
2014-04-03B73700.588004-338Charter
2014-06-28B73700.52-12-337No
2014-06-28B7370.5913800No
2015-01-13B73701.075609-153Yes
2015-03-12B73700.494943-86Yes
2015-03-28B73700.494149-273Yes
2015-04-04B73700.484345-256Yes
2015-04-05B73701.088560-479Yes
2015-04-06B73700.503379-138Yes
2015-06-23B7370.4649900Yes
2015-07-12B7370.5557050Yes
(pireps marked green are flown by you)

Route map